sensor_id;sensor_type;location;lat;lon;timestamp;pressure;altitude;pressure_sealevel;temperature;humidity
54876;BME280;40764;48.472;8.166;2022-08-25T00:04:23;98238.75;;;17.87;82.35
54876;BME280;40764;48.472;8.166;2022-08-25T00:10:23;98239.78;;;17.82;82.53
54876;BME280;40764;48.472;8.166;2022-08-25T00:16:24;98238.84;;;17.78;82.80
54876;BME280;40764;48.472;8.166;2022-08-25T00:22:25;98241.84;;;17.73;83.48
54876;BME280;40764;48.472;8.166;2022-08-25T00:28:25;98247.50;;;17.77;82.95
54876;BME280;40764;48.472;8.166;2022-08-25T00:34:31;98239.66;;;17.58;84.29
54876;BME280;40764;48.472;8.166;2022-08-25T00:40:34;98235.16;;;17.53;84.47
54876;BME280;40764;48.472;8.166;2022-08-25T00:46:39;98241.16;;;17.55;84.45
54876;BME280;40764;48.472;8.166;2022-08-25T00:52:46;98234.56;;;17.69;83.73
54876;BME280;40764;48.472;8.166;2022-08-25T00:58:48;98246.00;;;17.58;84.14
54876;BME280;40764;48.472;8.166;2022-08-25T01:04:49;98252.19;;;17.43;84.89
54876;BME280;40764;48.472;8.166;2022-08-25T01:10:50;98254.69;;;17.36;85.39
54876;BME280;40764;48.472;8.166;2022-08-25T01:16:51;98256.56;;;17.44;85.14
54876;BME280;40764;48.472;8.166;2022-08-25T01:22:52;98253.84;;;17.56;84.39
54876;BME280;40764;48.472;8.166;2022-08-25T01:28:53;98258.72;;;17.39;85.06
54876;BME280;40764;48.472;8.166;2022-08-25T01:35:12;98252.91;;;17.31;85.89
54876;BME280;40764;48.472;8.166;2022-08-25T01:41:16;98255.69;;;17.31;85.87
54876;BME280;40764;48.472;8.166;2022-08-25T01:47:20;98255.53;;;17.28;85.73
54876;BME280;40764;48.472;8.166;2022-08-25T01:53:30;98253.06;;;17.14;86.97
54876;BME280;40764;48.472;8.166;2022-08-25T01:59:31;98250.44;;;16.97;87.39
54876;BME280;40764;48.472;8.166;2022-08-25T02:05:32;98252.44;;;16.88;87.83
54876;BME280;40764;48.472;8.166;2022-08-25T02:11:32;98255.81;;;16.93;87.56
54876;BME280;40764;48.472;8.166;2022-08-25T02:17:35;98252.38;;;16.96;87.46
54876;BME280;40764;48.472;8.166;2022-08-25T02:23:36;98251.03;;;16.82;88.31
54876;BME280;40764;48.472;8.166;2022-08-25T02:29:36;98240.69;;;16.70;88.73
54876;BME280;40764;48.472;8.166;2022-08-25T02:35:37;98242.00;;;16.64;89.15
54876;BME280;40764;48.472;8.166;2022-08-25T02:41:37;98235.78;;;16.76;88.89
54876;BME280;40764;48.472;8.166;2022-08-25T02:47:39;98234.84;;;16.71;88.68
54876;BME280;40764;48.472;8.166;2022-08-25T02:53:40;98236.13;;;16.74;88.88
54876;BME280;40764;48.472;8.166;2022-08-25T02:59:41;98241.31;;;16.76;88.56
54876;BME280;40764;48.472;8.166;2022-08-25T03:05:41;98240.69;;;16.70;88.97
54876;BME280;40764;48.472;8.166;2022-08-25T03:11:42;98231.31;;;16.62;89.66
54876;BME280;40764;48.472;8.166;2022-08-25T03:17:44;98226.91;;;16.70;89.34
54876;BME280;40764;48.472;8.166;2022-08-25T03:23:45;98217.47;;;16.71;88.92
54876;BME280;40764;48.472;8.166;2022-08-25T03:29:45;98212.88;;;16.54;89.88
54876;BME280;40764;48.472;8.166;2022-08-25T03:35:46;98228.22;;;16.64;89.51
54876;BME280;40764;48.472;8.166;2022-08-25T03:41:46;98222.28;;;16.53;89.51
54876;BME280;40764;48.472;8.166;2022-08-25T03:47:48;98236.50;;;16.34;90.71
54876;BME280;40764;48.472;8.166;2022-08-25T03:53:49;98239.25;;;16.34;90.62
54876;BME280;40764;48.472;8.166;2022-08-25T03:59:49;98235.59;;;16.22;91.24
54876;BME280;40764;48.472;8.166;2022-08-25T04:05:50;98233.00;;;16.17;91.22
54876;BME280;40764;48.472;8.166;2022-08-25T04:11:51;98232.19;;;16.16;91.42
54876;BME280;40764;48.472;8.166;2022-08-25T04:17:51;98232.66;;;16.18;91.69
54876;BME280;40764;48.472;8.166;2022-08-25T04:23:53;98235.19;;;16.02;92.18
54876;BME280;40764;48.472;8.166;2022-08-25T04:29:55;98232.59;;;15.97;92.62
54876;BME280;40764;48.472;8.166;2022-08-25T04:35:55;98231.16;;;15.91;93.16
54876;BME280;40764;48.472;8.166;2022-08-25T04:41:56;98226.28;;;15.88;93.31
54876;BME280;40764;48.472;8.166;2022-08-25T04:47:56;98226.47;;;15.92;93.30
54876;BME280;40764;48.472;8.166;2022-08-25T04:54:01;98220.44;;;15.90;93.46
54876;BME280;40764;48.472;8.166;2022-08-25T05:00:03;98226.31;;;15.79;94.25
54876;BME280;40764;48.472;8.166;2022-08-25T05:06:04;98231.66;;;15.85;94.24
54876;BME280;40764;48.472;8.166;2022-08-25T05:12:05;98225.19;;;15.80;95.27
54876;BME280;40764;48.472;8.166;2022-08-25T05:18:05;98227.28;;;15.84;94.51
54876;BME280;40764;48.472;8.166;2022-08-25T05:24:06;98227.94;;;15.80;94.65
54876;BME280;40764;48.472;8.166;2022-08-25T05:30:09;98210.44;;;15.76;95.58
54876;BME280;40764;48.472;8.166;2022-08-25T05:36:11;98206.47;;;16.03;94.96
54876;BME280;40764;48.472;8.166;2022-08-25T05:42:12;98198.94;;;16.13;94.43
54876;BME280;40764;48.472;8.166;2022-08-25T05:48:12;98193.78;;;16.11;95.33
54876;BME280;40764;48.472;8.166;2022-08-25T05:54:13;98177.34;;;16.23;95.29
54876;BME280;40764;48.472;8.166;2022-08-25T06:00:14;98187.69;;;16.56;94.13
54876;BME280;40764;48.472;8.166;2022-08-25T06:06:16;98176.88;;;16.71;93.67
54876;BME280;40764;48.472;8.166;2022-08-25T06:12:17;98164.78;;;16.85;93.46
54876;BME280;40764;48.472;8.166;2022-08-25T06:18:18;98168.00;;;17.08;92.98
54876;BME280;40764;48.472;8.166;2022-08-25T06:24:18;98155.88;;;17.33;92.08
54876;BME280;40764;48.472;8.166;2022-08-25T06:30:20;98147.09;;;17.52;91.94
54876;BME280;40764;48.472;8.166;2022-08-25T06:36:21;98130.91;;;17.87;90.76
54876;BME280;40764;48.472;8.166;2022-08-25T06:42:22;98133.00;;;18.14;90.33
54876;BME280;40764;48.472;8.166;2022-08-25T06:48:22;98127.31;;;18.47;88.38
54876;BME280;40764;48.472;8.166;2022-08-25T06:54:23;98127.16;;;18.80;86.87
54876;BME280;40764;48.472;8.166;2022-08-25T07:00:23;98113.19;;;19.05;86.74
54876;BME280;40764;48.472;8.166;2022-08-25T07:06:25;98118.94;;;19.40;84.27
54876;BME280;40764;48.472;8.166;2022-08-25T07:12:26;98126.69;;;19.78;81.75
54876;BME280;40764;48.472;8.166;2022-08-25T07:18:27;98118.94;;;20.34;78.55
54876;BME280;40764;48.472;8.166;2022-08-25T07:24:28;98119.94;;;20.96;75.18
54876;BME280;40764;48.472;8.166;2022-08-25T07:30:29;98123.34;;;21.48;71.69
54876;BME280;40764;48.472;8.166;2022-08-25T07:36:30;98121.25;;;21.87;69.26
54876;BME280;40764;48.472;8.166;2022-08-25T07:42:31;98124.66;;;22.00;69.10
54876;BME280;40764;48.472;8.166;2022-08-25T07:48:31;98132.69;;;22.28;66.34
54876;BME280;40764;48.472;8.166;2022-08-25T07:54:33;98145.06;;;22.83;61.58
54876;BME280;40764;48.472;8.166;2022-08-25T08:00:35;98132.84;;;22.91;61.48
54876;BME280;40764;48.472;8.166;2022-08-25T08:06:38;98130.81;;;23.22;60.29
54876;BME280;40764;48.472;8.166;2022-08-25T08:12:38;98138.16;;;23.37;59.12
54876;BME280;40764;48.472;8.166;2022-08-25T08:18:40;98139.31;;;23.69;57.01
54876;BME280;40764;48.472;8.166;2022-08-25T08:24:43;98136.66;;;23.80;57.43
54876;BME280;40764;48.472;8.166;2022-08-25T08:30:43;98127.50;;;23.83;58.02
54876;BME280;40764;48.472;8.166;2022-08-25T08:36:44;98124.56;;;24.13;53.09
54876;BME280;40764;48.472;8.166;2022-08-25T08:43:04;98114.03;;;24.36;52.70
54876;BME280;40764;48.472;8.166;2022-08-25T08:49:20;98105.31;;;24.52;51.84
54876;BME280;40764;48.472;8.166;2022-08-25T08:55:31;98108.53;;;24.54;52.74
54876;BME280;40764;48.472;8.166;2022-08-25T09:01:52;98106.63;;;24.65;51.50
54876;BME280;40764;48.472;8.166;2022-08-25T09:08:10;98108.22;;;24.70;51.86
54876;BME280;40764;48.472;8.166;2022-08-25T09:33:55;98088.94;;;25.30;49.55
54876;BME280;40764;48.472;8.166;2022-08-25T09:39:56;98101.72;;;25.35;49.03
54876;BME280;40764;48.472;8.166;2022-08-25T09:46:25;98073.41;;;25.51;46.86
54876;BME280;40764;48.472;8.166;2022-08-25T09:52:30;98080.22;;;25.68;46.83
54876;BME280;40764;48.472;8.166;2022-08-25T09:58:32;98078.25;;;25.82;46.78
54876;BME280;40764;48.472;8.166;2022-08-25T10:04:37;98064.63;;;26.16;46.51
54876;BME280;40764;48.472;8.166;2022-08-25T10:10:43;98059.47;;;26.08;46.39
54876;BME280;40764;48.472;8.166;2022-08-25T10:16:46;98053.44;;;25.99;45.78
54876;BME280;40764;48.472;8.166;2022-08-25T10:22:48;98052.22;;;25.60;46.93
54876;BME280;40764;48.472;8.166;2022-08-25T10:34:54;98030.56;;;26.50;43.36
54876;BME280;40764;48.472;8.166;2022-08-25T10:47:33;98025.69;;;26.72;45.21
54876;BME280;40764;48.472;8.166;2022-08-25T11:06:00;98004.38;;;26.99;41.54
54876;BME280;40764;48.472;8.166;2022-08-25T11:12:14;97997.19;;;26.88;40.67
54876;BME280;40764;48.472;8.166;2022-08-25T11:18:19;97981.03;;;27.13;41.77
54876;BME280;40764;48.472;8.166;2022-08-25T11:30:58;97979.28;;;27.37;40.82
54876;BME280;40764;48.472;8.166;2022-08-25T11:37:04;97975.06;;;27.66;39.88
54876;BME280;40764;48.472;8.166;2022-08-25T11:43:31;97968.69;;;27.62;38.83
54876;BME280;40764;48.472;8.166;2022-08-25T11:49:51;97960.00;;;27.91;38.75
54876;BME280;40764;48.472;8.166;2022-08-25T11:55:56;97957.53;;;27.96;38.61
54876;BME280;40764;48.472;8.166;2022-08-25T12:02:01;97944.78;;;28.26;37.78
54876;BME280;40764;48.472;8.166;2022-08-25T12:08:04;97936.53;;;28.46;37.05
54876;BME280;40764;48.472;8.166;2022-08-25T12:21:29;97924.22;;;28.97;36.64
54876;BME280;40764;48.472;8.166;2022-08-25T12:27:05;97921.91;;;28.92;36.04
54876;BME280;40764;48.472;8.166;2022-08-25T12:33:26;97922.38;;;28.53;35.79
54876;BME280;40764;48.472;8.166;2022-08-25T12:39:36;97930.59;;;29.01;35.31
54876;BME280;40764;48.472;8.166;2022-08-25T12:45:45;97914.72;;;29.14;35.55
54876;BME280;40764;48.472;8.166;2022-08-25T12:51:55;97915.97;;;29.37;34.52
54876;BME280;40764;48.472;8.166;2022-08-25T12:57:59;97902.94;;;29.70;36.65
54876;BME280;40764;48.472;8.166;2022-08-25T13:10:45;97911.47;;;29.66;35.77
54876;BME280;40764;48.472;8.166;2022-08-25T13:16:55;97906.94;;;29.72;35.86
54876;BME280;40764;48.472;8.166;2022-08-25T13:22:58;97895.13;;;29.81;36.13
54876;BME280;40764;48.472;8.166;2022-08-25T13:29:11;97909.00;;;29.91;36.68
54876;BME280;40764;48.472;8.166;2022-08-25T13:35:19;97898.38;;;29.79;36.55
54876;BME280;40764;48.472;8.166;2022-08-25T13:41:24;97894.00;;;29.75;36.17
54876;BME280;40764;48.472;8.166;2022-08-25T13:47:39;97875.84;;;29.79;35.77
54876;BME280;40764;48.472;8.166;2022-08-25T13:53:39;97870.09;;;30.26;36.49
54876;BME280;40764;48.472;8.166;2022-08-25T13:59:41;97872.63;;;30.20;35.54
54876;BME280;40764;48.472;8.166;2022-08-25T14:05:42;97865.13;;;30.14;35.48
54876;BME280;40764;48.472;8.166;2022-08-25T14:11:54;97869.59;;;30.11;35.37
54876;BME280;40764;48.472;8.166;2022-08-25T14:18:02;97859.44;;;30.53;35.75
54876;BME280;40764;48.472;8.166;2022-08-25T14:24:03;97862.25;;;30.34;35.45
54876;BME280;40764;48.472;8.166;2022-08-25T14:30:05;97858.72;;;30.30;35.03
54876;BME280;40764;48.472;8.166;2022-08-25T14:36:06;97849.09;;;30.47;35.04
54876;BME280;40764;48.472;8.166;2022-08-25T14:42:07;97853.16;;;30.46;35.68
54876;BME280;40764;48.472;8.166;2022-08-25T14:48:25;97848.59;;;30.52;35.70
54876;BME280;40764;48.472;8.166;2022-08-25T14:54:27;97831.66;;;30.88;34.31
54876;BME280;40764;48.472;8.166;2022-08-25T15:00:27;97834.63;;;30.65;34.52
54876;BME280;40764;48.472;8.166;2022-08-25T15:06:28;97834.22;;;30.66;34.56
54876;BME280;40764;48.472;8.166;2022-08-25T15:12:28;97840.56;;;30.70;34.45
54876;BME280;40764;48.472;8.166;2022-08-25T15:18:30;97833.03;;;30.64;34.98
54876;BME280;40764;48.472;8.166;2022-08-25T15:24:30;97834.94;;;30.50;35.17
54876;BME280;40764;48.472;8.166;2022-08-25T15:30:30;97832.88;;;30.71;34.76
54876;BME280;40764;48.472;8.166;2022-08-25T15:36:32;97836.78;;;30.57;35.27
54876;BME280;40764;48.472;8.166;2022-08-25T15:42:33;97823.72;;;30.67;35.39
54876;BME280;40764;48.472;8.166;2022-08-25T15:48:33;97839.59;;;30.57;34.82
54876;BME280;40764;48.472;8.166;2022-08-25T15:54:34;97826.56;;;30.47;35.11
54876;BME280;40764;48.472;8.166;2022-08-25T16:00:35;97836.50;;;30.51;35.01
54876;BME280;40764;48.472;8.166;2022-08-25T16:06:36;97829.56;;;30.56;34.98
54876;BME280;40764;48.472;8.166;2022-08-25T16:12:37;97831.41;;;30.46;34.86
54876;BME280;40764;48.472;8.166;2022-08-25T16:18:39;97837.38;;;30.48;35.30
54876;BME280;40764;48.472;8.166;2022-08-25T16:24:40;97832.28;;;30.43;35.18
54876;BME280;40764;48.472;8.166;2022-08-25T16:30:47;97830.34;;;30.40;35.17
54876;BME280;40764;48.472;8.166;2022-08-25T16:36:47;97822.59;;;30.44;35.46
54876;BME280;40764;48.472;8.166;2022-08-25T16:42:48;97819.13;;;30.37;35.54
54876;BME280;40764;48.472;8.166;2022-08-25T16:48:48;97816.97;;;30.25;36.05
54876;BME280;40764;48.472;8.166;2022-08-25T16:54:49;97810.81;;;30.30;36.18
54876;BME280;40764;48.472;8.166;2022-08-25T17:01:10;97815.88;;;30.38;35.87
54876;BME280;40764;48.472;8.166;2022-08-25T17:07:11;97807.97;;;30.49;35.44
54876;BME280;40764;48.472;8.166;2022-08-25T17:13:13;97818.97;;;30.44;35.71
54876;BME280;40764;48.472;8.166;2022-08-25T17:19:14;97816.53;;;30.26;35.90
54876;BME280;40764;48.472;8.166;2022-08-25T17:25:16;97817.06;;;30.21;35.91
54876;BME280;40764;48.472;8.166;2022-08-25T17:31:17;97801.88;;;30.15;36.46
54876;BME280;40764;48.472;8.166;2022-08-25T17:37:17;97815.03;;;29.82;36.99
54876;BME280;40764;48.472;8.166;2022-08-25T17:43:17;97816.34;;;29.30;39.23
54876;BME280;40764;48.472;8.166;2022-08-25T17:49:18;97828.34;;;28.57;41.16
54876;BME280;40764;48.472;8.166;2022-08-25T17:55:19;97817.63;;;27.50;45.30
54876;BME280;40764;48.472;8.166;2022-08-25T18:01:26;97826.84;;;27.06;45.89
54876;BME280;40764;48.472;8.166;2022-08-25T18:07:26;97828.44;;;26.48;48.34
54876;BME280;40764;48.472;8.166;2022-08-25T18:13:26;97834.75;;;25.75;50.85
54876;BME280;40764;48.472;8.166;2022-08-25T18:19:27;97841.59;;;25.31;52.47
54876;BME280;40764;48.472;8.166;2022-08-25T18:25:27;97855.59;;;25.03;53.53
54876;BME280;40764;48.472;8.166;2022-08-25T18:31:28;97851.91;;;24.53;55.18
54876;BME280;40764;48.472;8.166;2022-08-25T18:37:28;97860.66;;;24.33;55.74
54876;BME280;40764;48.472;8.166;2022-08-25T18:43:47;97862.16;;;24.20;55.23
54876;BME280;40764;48.472;8.166;2022-08-25T18:49:47;97875.13;;;23.81;57.47
54876;BME280;40764;48.472;8.166;2022-08-25T18:55:48;97876.00;;;23.33;58.05
54876;BME280;40764;48.472;8.166;2022-08-25T19:01:48;97877.81;;;23.11;59.61
54876;BME280;40764;48.472;8.166;2022-08-25T19:07:50;97886.53;;;23.06;59.44
54876;BME280;40764;48.472;8.166;2022-08-25T19:13:59;97888.38;;;22.88;60.86
54876;BME280;40764;48.472;8.166;2022-08-25T19:20:00;97895.00;;;22.39;62.43
54876;BME280;40764;48.472;8.166;2022-08-25T19:26:01;97902.72;;;22.19;62.97
54876;BME280;40764;48.472;8.166;2022-08-25T19:32:02;97906.97;;;22.10;63.09
54876;BME280;40764;48.472;8.166;2022-08-25T19:38:07;97897.78;;;22.06;63.19
54876;BME280;40764;48.472;8.166;2022-08-25T19:44:09;97906.69;;;21.92;63.36
54876;BME280;40764;48.472;8.166;2022-08-25T19:50:11;97908.78;;;21.69;64.15
54876;BME280;40764;48.472;8.166;2022-08-25T19:56:11;97906.16;;;21.53;64.68
54876;BME280;40764;48.472;8.166;2022-08-25T20:02:18;97911.13;;;21.40;65.48
54876;BME280;40764;48.472;8.166;2022-08-25T20:08:19;97915.63;;;21.48;64.96
54876;BME280;40764;48.472;8.166;2022-08-25T20:14:33;97921.00;;;21.38;65.92
54876;BME280;40764;48.472;8.166;2022-08-25T20:20:35;97923.78;;;21.15;66.51
54876;BME280;40764;48.472;8.166;2022-08-25T20:26:36;97925.72;;;21.11;67.22
54876;BME280;40764;48.472;8.166;2022-08-25T20:32:37;97929.88;;;21.01;67.33
54876;BME280;40764;48.472;8.166;2022-08-25T20:38:37;97934.34;;;20.83;67.54
54876;BME280;40764;48.472;8.166;2022-08-25T20:44:40;97935.53;;;20.62;67.91
54876;BME280;40764;48.472;8.166;2022-08-25T20:50:40;97937.97;;;20.45;69.12
54876;BME280;40764;48.472;8.166;2022-08-25T20:56:43;97944.81;;;20.51;69.06
54876;BME280;40764;48.472;8.166;2022-08-25T21:02:44;97945.06;;;20.42;69.83
54876;BME280;40764;48.472;8.166;2022-08-25T21:08:45;97949.25;;;19.97;71.65
54876;BME280;40764;48.472;8.166;2022-08-25T21:14:46;97954.38;;;19.95;71.79
54876;BME280;40764;48.472;8.166;2022-08-25T21:20:47;97955.50;;;19.94;71.30
54876;BME280;40764;48.472;8.166;2022-08-25T21:26:49;97945.72;;;19.81;72.34
54876;BME280;40764;48.472;8.166;2022-08-25T21:32:50;97941.09;;;19.69;72.41
54876;BME280;40764;48.472;8.166;2022-08-25T21:38:52;97945.38;;;19.51;73.25
54876;BME280;40764;48.472;8.166;2022-08-25T21:44:53;97944.94;;;19.49;73.64
54876;BME280;40764;48.472;8.166;2022-08-25T21:51:15;97950.69;;;19.56;73.47
54876;BME280;40764;48.472;8.166;2022-08-25T21:57:16;97945.59;;;19.27;74.63
54876;BME280;40764;48.472;8.166;2022-08-25T22:03:17;97946.22;;;19.20;74.85
54876;BME280;40764;48.472;8.166;2022-08-25T22:09:17;97943.63;;;19.11;75.61
54876;BME280;40764;48.472;8.166;2022-08-25T22:15:18;97952.72;;;18.96;76.02
54876;BME280;40764;48.472;8.166;2022-08-25T22:21:19;97948.09;;;18.84;76.60
54876;BME280;40764;48.472;8.166;2022-08-25T22:27:26;97952.38;;;18.82;77.23
54876;BME280;40764;48.472;8.166;2022-08-25T22:33:28;97944.75;;;18.79;77.44
54876;BME280;40764;48.472;8.166;2022-08-25T22:39:29;97946.38;;;18.80;77.26
54876;BME280;40764;48.472;8.166;2022-08-25T22:45:30;97946.63;;;18.75;77.24
54876;BME280;40764;48.472;8.166;2022-08-25T22:51:31;97934.22;;;18.69;77.57
54876;BME280;40764;48.472;8.166;2022-08-25T22:57:33;97934.38;;;18.48;78.59
54876;BME280;40764;48.472;8.166;2022-08-25T23:03:33;97935.53;;;18.31;79.66
54876;BME280;40764;48.472;8.166;2022-08-25T23:09:34;97928.22;;;18.39;79.17
54876;BME280;40764;48.472;8.166;2022-08-25T23:15:34;97918.41;;;18.41;79.05
54876;BME280;40764;48.472;8.166;2022-08-25T23:21:34;97920.34;;;18.25;80.30
54876;BME280;40764;48.472;8.166;2022-08-25T23:27:53;97913.88;;;18.21;80.63
54876;BME280;40764;48.472;8.166;2022-08-25T23:33:55;97915.34;;;18.03;81.11
54876;BME280;40764;48.472;8.166;2022-08-25T23:39:56;97907.06;;;17.90;81.95
54876;BME280;40764;48.472;8.166;2022-08-25T23:45:56;97899.94;;;17.89;82.53
54876;BME280;40764;48.472;8.166;2022-08-25T23:51:56;97902.69;;;17.89;82.32
54876;BME280;40764;48.472;8.166;2022-08-25T23:57:57;97896.38;;;17.89;82.65
